sensor_id;sensor_type;location;lat;lon;timestamp;pressure;altitude;pressure_sealevel;temperature;humidity
57628;BME280;43451;49.060;10.616;2023-04-07T00:00:47;96736.28;;;2.64;100.00
57628;BME280;43451;49.060;10.616;2023-04-07T00:03:12;96737.94;;;2.68;100.00
57628;BME280;43451;49.060;10.616;2023-04-07T00:05:38;96741.50;;;2.72;100.00
57628;BME280;43451;49.060;10.616;2023-04-07T00:08:03;96749.53;;;2.72;100.00
57628;BME280;43451;49.060;10.616;2023-04-07T00:10:28;96741.25;;;2.77;100.00
57628;BME280;43451;49.060;10.616;2023-04-07T00:12:54;96738.78;;;2.85;100.00
57628;BME280;43451;49.060;10.616;2023-04-07T00:15:19;96742.78;;;2.91;100.00
57628;BME280;43451;49.060;10.616;2023-04-07T00:17:45;96742.56;;;2.96;100.00
57628;BME280;43451;49.060;10.616;2023-04-07T00:20:10;96746.88;;;3.00;100.00
57628;BME280;43451;49.060;10.616;2023-04-07T00:22:36;96738.16;;;3.03;100.00
57628;BME280;43451;49.060;10.616;2023-04-07T00:25:01;96742.75;;;3.03;100.00
57628;BME280;43451;49.060;10.616;2023-04-07T00:27:27;96738.06;;;3.00;100.00
57628;BME280;43451;49.060;10.616;2023-04-07T00:29:52;96724.66;;;3.00;100.00
57628;BME280;43451;49.060;10.616;2023-04-07T00:32:19;96730.88;;;3.04;100.00
57628;BME280;43451;49.060;10.616;2023-04-07T00:34:45;96724.59;;;3.12;100.00
57628;BME280;43451;49.060;10.616;2023-04-07T00:37:10;96730.00;;;3.28;100.00
57628;BME280;43451;49.060;10.616;2023-04-07T00:39:35;96726.44;;;3.24;100.00
57628;BME280;43451;49.060;10.616;2023-04-07T00:42:02;96725.59;;;3.36;100.00
57628;BME280;43451;49.060;10.616;2023-04-07T00:44:27;96711.59;;;3.58;100.00
57628;BME280;43451;49.060;10.616;2023-04-07T00:46:53;96719.13;;;3.53;100.00
57628;BME280;43451;49.060;10.616;2023-04-07T00:49:18;96715.56;;;3.48;100.00
57628;BME280;43451;49.060;10.616;2023-04-07T00:51:43;96715.69;;;3.52;100.00
57628;BME280;43451;49.060;10.616;2023-04-07T00:54:09;96712.88;;;3.48;100.00
57628;BME280;43451;49.060;10.616;2023-04-07T00:56:35;96714.25;;;3.58;98.85
57628;BME280;43451;49.060;10.616;2023-04-07T00:59:02;96706.03;;;3.51;100.00
57628;BME280;43451;49.060;10.616;2023-04-07T01:02:13;96712.28;;;3.55;100.00
57628;BME280;43451;49.060;10.616;2023-04-07T01:04:34;96700.50;;;3.76;100.00
57628;BME280;43451;49.060;10.616;2023-04-07T01:07:04;96697.72;;;3.88;97.72
57628;BME280;43451;49.060;10.616;2023-04-07T01:09:36;96696.69;;;3.92;97.31
57628;BME280;43451;49.060;10.616;2023-04-07T01:14:28;96698.16;;;3.90;99.28
57628;BME280;43451;49.060;10.616;2023-04-07T01:16:56;96693.22;;;3.92;98.34
57628;BME280;43451;49.060;10.616;2023-04-07T01:21:59;96693.72;;;3.98;95.69
57628;BME280;43451;49.060;10.616;2023-04-07T01:27:03;96690.09;;;3.90;99.66
57628;BME280;43451;49.060;10.616;2023-04-07T01:29:33;96687.59;;;3.97;97.06
57628;BME280;43451;49.060;10.616;2023-04-07T01:32:01;96683.16;;;3.89;98.88
57628;BME280;43451;49.060;10.616;2023-04-07T01:34:28;96699.97;;;3.86;100.00
57628;BME280;43451;49.060;10.616;2023-04-07T01:36:54;96702.13;;;3.64;100.00
57628;BME280;43451;49.060;10.616;2023-04-07T01:39:20;96694.25;;;3.40;100.00
57628;BME280;43451;49.060;10.616;2023-04-07T01:41:46;96698.56;;;3.29;100.00
57628;BME280;43451;49.060;10.616;2023-04-07T01:44:13;96696.50;;;3.38;100.00
57628;BME280;43451;49.060;10.616;2023-04-07T01:46:39;96692.38;;;3.56;100.00
57628;BME280;43451;49.060;10.616;2023-04-07T01:49:04;96682.56;;;3.64;100.00
57628;BME280;43451;49.060;10.616;2023-04-07T01:51:30;96684.38;;;3.76;100.00
57628;BME280;43451;49.060;10.616;2023-04-07T01:53:57;96676.41;;;3.95;100.00
57628;BME280;43451;49.060;10.616;2023-04-07T01:56:23;96671.72;;;3.92;100.00
57628;BME280;43451;49.060;10.616;2023-04-07T01:58:48;96670.41;;;3.86;100.00
57628;BME280;43451;49.060;10.616;2023-04-07T02:01:13;96669.56;;;3.98;100.00
57628;BME280;43451;49.060;10.616;2023-04-07T02:06:05;96663.91;;;3.87;100.00
57628;BME280;43451;49.060;10.616;2023-04-07T02:08:32;96665.72;;;3.99;100.00
57628;BME280;43451;49.060;10.616;2023-04-07T02:10:57;96656.25;;;4.05;100.00
57628;BME280;43451;49.060;10.616;2023-04-07T02:13:23;96656.69;;;4.07;100.00
57628;BME280;43451;49.060;10.616;2023-04-07T02:15:50;96654.94;;;4.14;100.00
57628;BME280;43451;49.060;10.616;2023-04-07T02:18:17;96650.69;;;4.13;100.00
57628;BME280;43451;49.060;10.616;2023-04-07T02:20:44;96644.09;;;4.11;100.00
57628;BME280;43451;49.060;10.616;2023-04-07T02:23:11;96639.25;;;4.16;100.00
57628;BME280;43451;49.060;10.616;2023-04-07T02:25:36;96639.75;;;4.22;100.00
57628;BME280;43451;49.060;10.616;2023-04-07T02:28:05;96645.53;;;4.24;100.00
57628;BME280;43451;49.060;10.616;2023-04-07T02:30:33;96650.59;;;4.26;100.00
57628;BME280;43451;49.060;10.616;2023-04-07T02:32:59;96642.53;;;4.26;100.00
57628;BME280;43451;49.060;10.616;2023-04-07T02:35:24;96642.53;;;4.26;100.00
57628;BME280;43451;49.060;10.616;2023-04-07T02:37:49;96637.06;;;4.22;100.00
57628;BME280;43451;49.060;10.616;2023-04-07T02:40:15;96638.94;;;4.22;100.00
57628;BME280;43451;49.060;10.616;2023-04-07T02:42:41;96647.47;;;4.24;100.00
57628;BME280;43451;49.060;10.616;2023-04-07T02:45:07;96640.78;;;4.17;100.00
57628;BME280;43451;49.060;10.616;2023-04-07T02:47:33;96635.66;;;4.28;100.00
57628;BME280;43451;49.060;10.616;2023-04-07T02:49:59;96641.66;;;4.22;100.00
57628;BME280;43451;49.060;10.616;2023-04-07T02:52:24;96635.78;;;4.16;100.00
57628;BME280;43451;49.060;10.616;2023-04-07T02:54:50;96646.41;;;4.28;100.00
57628;BME280;43451;49.060;10.616;2023-04-07T02:57:15;96639.13;;;4.29;100.00
57628;BME280;43451;49.060;10.616;2023-04-07T02:59:41;96640.09;;;4.21;100.00
57628;BME280;43451;49.060;10.616;2023-04-07T03:02:06;96641.94;;;4.16;100.00
57628;BME280;43451;49.060;10.616;2023-04-07T03:04:31;96642.41;;;4.38;100.00
57628;BME280;43451;49.060;10.616;2023-04-07T03:06:57;96641.25;;;4.39;100.00
57628;BME280;43451;49.060;10.616;2023-04-07T03:09:22;96643.09;;;4.35;100.00
57628;BME280;43451;49.060;10.616;2023-04-07T03:11:48;96641.25;;;4.58;100.00
57628;BME280;43451;49.060;10.616;2023-04-07T03:14:13;96634.09;;;4.66;100.00
57628;BME280;43451;49.060;10.616;2023-04-07T03:16:38;96639.41;;;4.62;100.00
57628;BME280;43451;49.060;10.616;2023-04-07T03:19:04;96633.31;;;4.85;100.00
57628;BME280;43451;49.060;10.616;2023-04-07T03:21:29;96638.41;;;4.90;100.00
57628;BME280;43451;49.060;10.616;2023-04-07T03:23:56;96638.97;;;4.99;100.00
57628;BME280;43451;49.060;10.616;2023-04-07T03:26:21;96629.34;;;4.79;100.00
57628;BME280;43451;49.060;10.616;2023-04-07T03:28:46;96627.31;;;4.72;100.00
57628;BME280;43451;49.060;10.616;2023-04-07T03:31:12;96630.44;;;4.74;100.00
57628;BME280;43451;49.060;10.616;2023-04-07T03:33:37;96633.88;;;4.94;100.00
57628;BME280;43451;49.060;10.616;2023-04-07T03:36:02;96639.97;;;4.91;100.00
57628;BME280;43451;49.060;10.616;2023-04-07T03:38:28;96629.78;;;4.81;100.00
57628;BME280;43451;49.060;10.616;2023-04-07T03:40:53;96634.53;;;4.68;100.00
57628;BME280;43451;49.060;10.616;2023-04-07T03:43:18;96634.66;;;4.56;100.00
57628;BME280;43451;49.060;10.616;2023-04-07T03:45:44;96634.88;;;4.47;100.00
57628;BME280;43451;49.060;10.616;2023-04-07T03:48:09;96628.25;;;4.41;100.00
57628;BME280;43451;49.060;10.616;2023-04-07T03:50:39;96625.81;;;4.36;100.00
57628;BME280;43451;49.060;10.616;2023-04-07T03:53:04;96627.66;;;4.32;100.00
57628;BME280;43451;49.060;10.616;2023-04-07T03:55:30;96620.88;;;4.38;100.00
57628;BME280;43451;49.060;10.616;2023-04-07T03:57:55;96629.09;;;4.45;100.00
57628;BME280;43451;49.060;10.616;2023-04-07T04:00:21;96625.47;;;4.37;100.00
57628;BME280;43451;49.060;10.616;2023-04-07T04:02:46;96631.19;;;4.36;100.00
57628;BME280;43451;49.060;10.616;2023-04-07T04:05:11;96627.38;;;4.37;100.00
57628;BME280;43451;49.060;10.616;2023-04-07T04:07:37;96628.06;;;4.34;100.00
57628;BME280;43451;49.060;10.616;2023-04-07T04:10:02;96625.31;;;4.30;100.00
57628;BME280;43451;49.060;10.616;2023-04-07T04:12:28;96618.03;;;4.31;100.00
57628;BME280;43451;49.060;10.616;2023-04-07T04:14:53;96619.66;;;4.35;100.00
57628;BME280;43451;49.060;10.616;2023-04-07T04:17:18;96618.09;;;4.34;100.00
57628;BME280;43451;49.060;10.616;2023-04-07T04:19:44;96615.06;;;4.36;100.00
57628;BME280;43451;49.060;10.616;2023-04-07T04:22:09;96616.91;;;4.32;100.00
57628;BME280;43451;49.060;10.616;2023-04-07T04:24:35;96615.50;;;4.38;100.00
57628;BME280;43451;49.060;10.616;2023-04-07T04:27:00;96615.00;;;4.32;100.00
57628;BME280;43451;49.060;10.616;2023-04-07T04:29:26;96608.34;;;4.26;100.00
57628;BME280;43451;49.060;10.616;2023-04-07T04:31:51;96613.34;;;4.28;100.00
57628;BME280;43451;49.060;10.616;2023-04-07T04:34:16;96605.22;;;4.24;100.00
57628;BME280;43451;49.060;10.616;2023-04-07T04:36:42;96606.00;;;4.25;100.00
57628;BME280;43451;49.060;10.616;2023-04-07T04:39:07;96601.03;;;4.27;100.00
57628;BME280;43451;49.060;10.616;2023-04-07T04:41:32;96602.97;;;4.26;100.00
57628;BME280;43451;49.060;10.616;2023-04-07T04:43:58;96594.13;;;4.26;100.00
57628;BME280;43451;49.060;10.616;2023-04-07T04:46:23;96605.28;;;4.28;100.00
57628;BME280;43451;49.060;10.616;2023-04-07T04:48:48;96600.19;;;4.23;100.00
57628;BME280;43451;49.060;10.616;2023-04-07T04:51:15;96600.91;;;4.19;100.00
57628;BME280;43451;49.060;10.616;2023-04-07T04:53:40;96601.25;;;4.18;100.00
57628;BME280;43451;49.060;10.616;2023-04-07T04:56:07;96601.94;;;4.15;100.00
57628;BME280;43451;49.060;10.616;2023-04-07T04:58:32;96603.16;;;4.17;100.00
57628;BME280;43451;49.060;10.616;2023-04-07T05:00:57;96605.84;;;4.17;100.00
57628;BME280;43451;49.060;10.616;2023-04-07T05:03:24;96610.88;;;4.19;100.00
57628;BME280;43451;49.060;10.616;2023-04-07T05:05:50;96602.25;;;4.49;100.00
57628;BME280;43451;49.060;10.616;2023-04-07T05:08:16;96598.59;;;4.57;100.00
57628;BME280;43451;49.060;10.616;2023-04-07T05:10:41;96593.28;;;4.60;100.00
57628;BME280;43451;49.060;10.616;2023-04-07T05:13:06;96606.22;;;4.55;100.00
57628;BME280;43451;49.060;10.616;2023-04-07T05:15:32;96597.38;;;4.35;100.00
57628;BME280;43451;49.060;10.616;2023-04-07T05:17:57;96594.69;;;4.35;100.00
57628;BME280;43451;49.060;10.616;2023-04-07T05:20:22;96594.59;;;4.31;100.00
57628;BME280;43451;49.060;10.616;2023-04-07T05:22:48;96598.22;;;4.39;100.00
57628;BME280;43451;49.060;10.616;2023-04-07T05:25:13;96593.13;;;4.53;100.00
57628;BME280;43451;49.060;10.616;2023-04-07T05:27:38;96600.66;;;4.44;100.00
57628;BME280;43451;49.060;10.616;2023-04-07T05:30:04;96591.56;;;4.52;100.00
57628;BME280;43451;49.060;10.616;2023-04-07T05:32:30;96589.16;;;4.47;100.00
57628;BME280;43451;49.060;10.616;2023-04-07T05:34:55;96588.75;;;4.45;100.00
57628;BME280;43451;49.060;10.616;2023-04-07T05:37:21;96583.38;;;4.45;100.00
57628;BME280;43451;49.060;10.616;2023-04-07T05:39:46;96592.78;;;4.55;100.00
57628;BME280;43451;49.060;10.616;2023-04-07T05:42:11;96598.78;;;4.68;100.00
57628;BME280;43451;49.060;10.616;2023-04-07T05:44:37;96604.41;;;4.82;100.00
57628;BME280;43451;49.060;10.616;2023-04-07T05:47:02;96595.28;;;4.86;100.00
57628;BME280;43451;49.060;10.616;2023-04-07T05:49:32;96594.41;;;5.02;100.00
57628;BME280;43451;49.060;10.616;2023-04-07T05:51:58;96589.41;;;4.81;100.00
57628;BME280;43451;49.060;10.616;2023-04-07T05:54:23;96594.38;;;4.79;100.00
57628;BME280;43451;49.060;10.616;2023-04-07T05:56:48;96589.84;;;4.83;100.00
57628;BME280;43451;49.060;10.616;2023-04-07T05:59:14;96598.25;;;4.81;100.00
57628;BME280;43451;49.060;10.616;2023-04-07T06:01:40;96596.78;;;4.84;100.00
57628;BME280;43451;49.060;10.616;2023-04-07T06:04:06;96587.50;;;4.81;100.00
57628;BME280;43451;49.060;10.616;2023-04-07T06:06:31;96601.88;;;4.89;100.00
57628;BME280;43451;49.060;10.616;2023-04-07T06:08:57;96598.03;;;4.90;100.00
57628;BME280;43451;49.060;10.616;2023-04-07T06:11:22;96594.69;;;4.97;100.00
57628;BME280;43451;49.060;10.616;2023-04-07T06:13:47;96594.03;;;5.03;100.00
57628;BME280;43451;49.060;10.616;2023-04-07T06:16:13;96592.66;;;5.13;100.00
57628;BME280;43451;49.060;10.616;2023-04-07T06:18:38;96591.28;;;5.23;100.00
57628;BME280;43451;49.060;10.616;2023-04-07T06:21:03;96595.97;;;5.26;100.00
57628;BME280;43451;49.060;10.616;2023-04-07T06:23:29;96601.50;;;5.33;100.00
57628;BME280;43451;49.060;10.616;2023-04-07T06:25:55;96593.16;;;5.42;100.00
57628;BME280;43451;49.060;10.616;2023-04-07T06:28:20;96593.91;;;5.42;100.00
57628;BME280;43451;49.060;10.616;2023-04-07T06:30:45;96594.81;;;5.50;100.00
57628;BME280;43451;49.060;10.616;2023-04-07T06:33:11;96598.00;;;5.55;100.00
57628;BME280;43451;49.060;10.616;2023-04-07T06:35:38;96587.31;;;5.63;100.00
57628;BME280;43451;49.060;10.616;2023-04-07T06:38:03;96594.50;;;5.78;100.00
57628;BME280;43451;49.060;10.616;2023-04-07T06:40:28;96593.84;;;5.88;100.00
57628;BME280;43451;49.060;10.616;2023-04-07T06:42:54;96587.03;;;5.94;100.00
57628;BME280;43451;49.060;10.616;2023-04-07T06:45:19;96594.06;;;6.02;100.00
57628;BME280;43451;49.060;10.616;2023-04-07T06:47:45;96590.25;;;6.03;100.00
57628;BME280;43451;49.060;10.616;2023-04-07T06:50:11;96583.25;;;5.99;100.00
57628;BME280;43451;49.060;10.616;2023-04-07T06:52:36;96585.63;;;6.04;100.00
57628;BME280;43451;49.060;10.616;2023-04-07T06:55:01;96579.56;;;6.11;100.00
57628;BME280;43451;49.060;10.616;2023-04-07T06:57:27;96587.84;;;6.25;100.00
57628;BME280;43451;49.060;10.616;2023-04-07T06:59:52;96587.44;;;6.23;100.00
57628;BME280;43451;49.060;10.616;2023-04-07T07:02:18;96584.13;;;6.37;100.00
57628;BME280;43451;49.060;10.616;2023-04-07T07:04:43;96588.69;;;6.33;100.00
57628;BME280;43451;49.060;10.616;2023-04-07T07:07:09;96580.22;;;6.34;100.00
57628;BME280;43451;49.060;10.616;2023-04-07T07:09:34;96586.47;;;6.38;100.00
57628;BME280;43451;49.060;10.616;2023-04-07T07:11:59;96587.25;;;6.39;100.00
57628;BME280;43451;49.060;10.616;2023-04-07T07:14:26;96588.50;;;6.48;100.00
57628;BME280;43451;49.060;10.616;2023-04-07T07:16:51;96594.72;;;6.53;100.00
57628;BME280;43451;49.060;10.616;2023-04-07T07:19:16;96591.47;;;6.70;100.00
57628;BME280;43451;49.060;10.616;2023-04-07T07:21:42;96588.03;;;6.73;100.00
57628;BME280;43451;49.060;10.616;2023-04-07T07:24:07;96590.31;;;6.71;100.00
57628;BME280;43451;49.060;10.616;2023-04-07T07:26:32;96593.06;;;6.78;100.00
57628;BME280;43451;49.060;10.616;2023-04-07T07:28:58;96583.03;;;6.79;100.00
57628;BME280;43451;49.060;10.616;2023-04-07T07:31:23;96589.66;;;6.85;100.00
57628;BME280;43451;49.060;10.616;2023-04-07T07:33:48;96589.44;;;7.01;100.00
57628;BME280;43451;49.060;10.616;2023-04-07T07:36:15;96591.84;;;7.09;100.00
57628;BME280;43451;49.060;10.616;2023-04-07T07:38:41;96589.16;;;7.09;100.00
57628;BME280;43451;49.060;10.616;2023-04-07T07:41:06;96591.28;;;7.30;100.00
57628;BME280;43451;49.060;10.616;2023-04-07T07:43:31;96587.84;;;7.33;100.00
57628;BME280;43451;49.060;10.616;2023-04-07T07:45:57;96597.06;;;7.32;100.00
57628;BME280;43451;49.060;10.616;2023-04-07T07:48:22;96583.41;;;7.59;100.00
57628;BME280;43451;49.060;10.616;2023-04-07T07:50:47;96585.00;;;7.67;100.00
57628;BME280;43451;49.060;10.616;2023-04-07T07:53:13;96593.59;;;7.80;100.00
57628;BME280;43451;49.060;10.616;2023-04-07T07:55:38;96598.25;;;7.83;99.86
57628;BME280;43451;49.060;10.616;2023-04-07T07:58:04;96599.69;;;7.66;100.00
57628;BME280;43451;49.060;10.616;2023-04-07T08:00:29;96596.16;;;7.58;100.00
57628;BME280;43451;49.060;10.616;2023-04-07T08:02:54;96591.59;;;7.70;100.00
57628;BME280;43451;49.060;10.616;2023-04-07T08:05:20;96595.03;;;7.66;100.00
57628;BME280;43451;49.060;10.616;2023-04-07T08:07:45;96588.91;;;7.73;98.51
57628;BME280;43451;49.060;10.616;2023-04-07T08:10:11;96588.16;;;7.76;100.00
57628;BME280;43451;49.060;10.616;2023-04-07T08:12:36;96592.75;;;7.68;100.00
57628;BME280;43451;49.060;10.616;2023-04-07T08:15:02;96594.28;;;7.70;100.00
57628;BME280;43451;49.060;10.616;2023-04-07T08:17:27;96600.47;;;7.70;100.00
57628;BME280;43451;49.060;10.616;2023-04-07T08:19:53;96600.44;;;7.63;100.00
57628;BME280;43451;49.060;10.616;2023-04-07T08:22:18;96595.69;;;8.04;98.95
57628;BME280;43451;49.060;10.616;2023-04-07T08:24:45;96603.38;;;7.99;100.00
57628;BME280;43451;49.060;10.616;2023-04-07T08:27:11;96591.78;;;7.98;100.00
57628;BME280;43451;49.060;10.616;2023-04-07T08:29:36;96598.41;;;8.08;100.00
57628;BME280;43451;49.060;10.616;2023-04-07T08:32:02;96602.28;;;8.07;100.00
57628;BME280;43451;49.060;10.616;2023-04-07T08:34:27;96601.22;;;8.22;99.19
57628;BME280;43451;49.060;10.616;2023-04-07T08:36:53;96593.88;;;8.26;100.00
57628;BME280;43451;49.060;10.616;2023-04-07T08:39:18;96596.94;;;8.21;97.98
57628;BME280;43451;49.060;10.616;2023-04-07T08:41:43;96589.97;;;8.20;95.86
57628;BME280;43451;49.060;10.616;2023-04-07T08:44:09;96594.97;;;8.18;97.86
57628;BME280;43451;49.060;10.616;2023-04-07T08:46:37;96583.81;;;8.23;95.89
57628;BME280;43451;49.060;10.616;2023-04-07T08:49:02;96587.81;;;8.44;94.81
57628;BME280;43451;49.060;10.616;2023-04-07T08:51:32;96577.66;;;8.33;94.33
57628;BME280;43451;49.060;10.616;2023-04-07T08:56:25;96593.28;;;8.65;93.98
57628;BME280;43451;49.060;10.616;2023-04-07T08:58:51;96592.22;;;8.91;92.39
57628;BME280;43451;49.060;10.616;2023-04-07T09:01:17;96587.19;;;8.90;92.20
57628;BME280;43451;49.060;10.616;2023-04-07T09:03:43;96594.97;;;9.16;91.56
57628;BME280;43451;49.060;10.616;2023-04-07T09:06:10;96595.78;;;9.31;95.23
57628;BME280;43451;49.060;10.616;2023-04-07T09:08:36;96590.34;;;9.27;90.77
57628;BME280;43451;49.060;10.616;2023-04-07T09:11:01;96589.94;;;9.25;85.55
57628;BME280;43451;49.060;10.616;2023-04-07T09:13:26;96596.13;;;9.22;89.21
57628;BME280;43451;49.060;10.616;2023-04-07T09:15:52;96589.53;;;9.16;86.59
57628;BME280;43451;49.060;10.616;2023-04-07T09:18:18;96598.47;;;9.17;90.06
57628;BME280;43451;49.060;10.616;2023-04-07T09:23:39;96593.06;;;9.20;87.90
57628;BME280;43451;49.060;10.616;2023-04-07T09:28:44;96595.00;;;9.20;85.33
57628;BME280;43451;49.060;10.616;2023-04-07T09:31:09;96581.81;;;9.18;91.38
57628;BME280;43451;49.060;10.616;2023-04-07T09:33:35;96582.59;;;9.22;84.18
57628;BME280;43451;49.060;10.616;2023-04-07T09:36:01;96581.81;;;9.11;83.39
57628;BME280;43451;49.060;10.616;2023-04-07T09:38:34;96594.19;;;8.98;86.59
57628;BME280;43451;49.060;10.616;2023-04-07T09:41:13;96594.94;;;8.98;90.44
57628;BME280;43451;49.060;10.616;2023-04-07T09:43:41;96584.47;;;8.86;84.68
57628;BME280;43451;49.060;10.616;2023-04-07T09:46:18;96580.66;;;9.19;82.97
57628;BME280;43451;49.060;10.616;2023-04-07T09:48:44;96583.72;;;9.00;87.67
57628;BME280;43451;49.060;10.616;2023-04-07T09:51:14;96592.25;;;8.98;88.46
57628;BME280;43451;49.060;10.616;2023-04-07T09:53:42;96592.63;;;9.00;91.11
57628;BME280;43451;49.060;10.616;2023-04-07T09:56:11;96586.41;;;8.86;95.96
57628;BME280;43451;49.060;10.616;2023-04-07T09:58:37;96586.00;;;8.91;89.68
57628;BME280;43451;49.060;10.616;2023-04-07T10:01:06;96596.47;;;8.92;89.41
57628;BME280;43451;49.060;10.616;2023-04-07T10:03:33;96596.50;;;8.96;83.99
57628;BME280;43451;49.060;10.616;2023-04-07T10:06:02;96589.53;;;8.98;84.69
57628;BME280;43451;49.060;10.616;2023-04-07T10:08:29;96587.22;;;9.04;84.65
57628;BME280;43451;49.060;10.616;2023-04-07T10:10:55;96588.41;;;9.32;81.17
57628;BME280;43451;49.060;10.616;2023-04-07T10:13:21;96587.22;;;9.11;82.66
57628;BME280;43451;49.060;10.616;2023-04-07T10:15:48;96590.34;;;9.27;82.04
57628;BME280;43451;49.060;10.616;2023-04-07T10:18:13;96589.94;;;9.29;80.33
57628;BME280;43451;49.060;10.616;2023-04-07T10:20:39;96583.38;;;9.23;84.06
57628;BME280;43451;49.060;10.616;2023-04-07T10:23:55;96586.88;;;9.20;81.63
57628;BME280;43451;49.060;10.616;2023-04-07T10:25:53;96595.00;;;9.23;81.88
57628;BME280;43451;49.060;10.616;2023-04-07T10:28:22;96590.34;;;9.17;82.87
57628;BME280;43451;49.060;10.616;2023-04-07T10:30:49;96590.31;;;8.99;84.00
57628;BME280;43451;49.060;10.616;2023-04-07T10:33:16;96589.53;;;9.02;83.29
57628;BME280;43451;49.060;10.616;2023-04-07T10:38:26;96589.56;;;9.23;85.41
57628;BME280;43451;49.060;10.616;2023-04-07T10:40:51;96590.34;;;9.20;84.77
57628;BME280;43451;49.060;10.616;2023-04-07T10:43:35;96597.69;;;9.13;85.09
57628;BME280;43451;49.060;10.616;2023-04-07T10:46:01;96596.91;;;9.19;84.66
57628;BME280;43451;49.060;10.616;2023-04-07T10:48:26;96595.72;;;9.10;83.17
57628;BME280;43451;49.060;10.616;2023-04-07T10:53:31;96598.84;;;9.08;81.19
57628;BME280;43451;49.060;10.616;2023-04-07T10:55:57;96596.13;;;9.19;82.91
57628;BME280;43451;49.060;10.616;2023-04-07T10:58:32;96594.19;;;9.19;83.03
57628;BME280;43451;49.060;10.616;2023-04-07T11:06:04;96591.16;;;9.39;82.27
57628;BME280;43451;49.060;10.616;2023-04-07T11:08:34;96596.56;;;9.64;80.18
57628;BME280;43451;49.060;10.616;2023-04-07T11:10:59;96591.16;;;9.42;79.43
57628;BME280;43451;49.060;10.616;2023-04-07T11:13:25;96601.59;;;9.65;78.58
57628;BME280;43451;49.060;10.616;2023-04-07T11:15:51;96596.56;;;9.67;77.21
57628;BME280;43451;49.060;10.616;2023-04-07T11:18:18;96585.72;;;9.74;80.03
57628;BME280;43451;49.060;10.616;2023-04-07T11:20:47;96591.53;;;9.84;78.36
57628;BME280;43451;49.060;10.616;2023-04-07T11:23:14;96590.72;;;9.90;77.39
57628;BME280;43451;49.060;10.616;2023-04-07T11:25:44;96596.94;;;9.76;77.30
57628;BME280;43451;49.060;10.616;2023-04-07T11:28:10;96592.66;;;9.97;79.10
57628;BME280;43451;49.060;10.616;2023-04-07T11:30:37;96593.38;;;10.22;76.77
57628;BME280;43451;49.060;10.616;2023-04-07T11:33:03;96587.19;;;10.18;73.35
57628;BME280;43451;49.060;10.616;2023-04-07T11:35:28;96594.94;;;10.38;76.30
57628;BME280;43451;49.060;10.616;2023-04-07T11:37:57;96591.00;;;10.53;69.75
57628;BME280;43451;49.060;10.616;2023-04-07T11:40:33;96600.69;;;10.54;71.68
57628;BME280;43451;49.060;10.616;2023-04-07T11:42:59;96598.00;;;10.47;74.12
57628;BME280;43451;49.060;10.616;2023-04-07T11:45:26;96598.75;;;10.51;72.43
57628;BME280;43451;49.060;10.616;2023-04-07T11:47:51;96599.47;;;10.69;69.60
57628;BME280;43451;49.060;10.616;2023-04-07T11:50:16;96601.03;;;10.67;69.09
57628;BME280;43451;49.060;10.616;2023-04-07T11:53:01;96598.81;;;10.40;71.53
57628;BME280;43451;49.060;10.616;2023-04-07T11:55:26;96598.75;;;10.51;70.97
57628;BME280;43451;49.060;10.616;2023-04-07T11:57:53;96601.13;;;10.38;77.03
57628;BME280;43451;49.060;10.616;2023-04-07T12:00:19;96596.88;;;10.27;80.78
57628;BME280;43451;49.060;10.616;2023-04-07T12:02:44;96598.03;;;10.26;77.37
57628;BME280;43451;49.060;10.616;2023-04-07T12:05:10;96597.63;;;10.38;83.43
57628;BME280;43451;49.060;10.616;2023-04-07T12:07:38;96600.00;;;10.29;83.96
57628;BME280;43451;49.060;10.616;2023-04-07T12:10:18;96596.09;;;10.40;84.51
57628;BME280;43451;49.060;10.616;2023-04-07T12:12:45;96595.63;;;10.53;84.77
57628;BME280;43451;49.060;10.616;2023-04-07T12:15:10;96595.66;;;10.49;85.16
57628;BME280;43451;49.060;10.616;2023-04-07T12:17:35;96600.34;;;10.41;83.73
57628;BME280;43451;49.060;10.616;2023-04-07T12:20:01;96588.66;;;10.55;73.82
57628;BME280;43451;49.060;10.616;2023-04-07T12:22:26;96599.53;;;10.52;73.51
57628;BME280;43451;49.060;10.616;2023-04-07T12:24:52;96599.16;;;10.42;80.98
57628;BME280;43451;49.060;10.616;2023-04-07T12:27:17;96603.44;;;10.36;82.07
57628;BME280;43451;49.060;10.616;2023-04-07T12:29:43;96599.53;;;10.48;77.51
57628;BME280;43451;49.060;10.616;2023-04-07T12:32:08;96596.00;;;10.62;76.30
57628;BME280;43451;49.060;10.616;2023-04-07T12:34:34;96594.88;;;10.49;72.27
57628;BME280;43451;49.060;10.616;2023-04-07T12:37:01;96603.38;;;10.58;71.24
57628;BME280;43451;49.060;10.616;2023-04-07T12:39:26;96601.00;;;10.71;70.19
57628;BME280;43451;49.060;10.616;2023-04-07T12:41:52;96596.31;;;10.75;78.74
57628;BME280;43451;49.060;10.616;2023-04-07T12:44:17;96590.88;;;10.75;71.33
57628;BME280;43451;49.060;10.616;2023-04-07T12:46:43;96595.06;;;10.93;76.02
57628;BME280;43451;49.060;10.616;2023-04-07T12:49:08;96591.47;;;11.14;79.58
57628;BME280;43451;49.060;10.616;2023-04-07T12:51:33;96586.38;;;11.20;70.99
57628;BME280;43451;49.060;10.616;2023-04-07T12:53:59;96584.53;;;11.03;70.84
57628;BME280;43451;49.060;10.616;2023-04-07T12:56:27;96586.06;;;11.07;72.82
57628;BME280;43451;49.060;10.616;2023-04-07T12:58:53;96586.72;;;11.29;69.30
57628;BME280;43451;49.060;10.616;2023-04-07T13:01:18;96585.28;;;11.10;74.44
57628;BME280;43451;49.060;10.616;2023-04-07T13:03:44;96592.59;;;11.21;68.99
57628;BME280;43451;49.060;10.616;2023-04-07T13:06:10;96591.88;;;11.09;70.47
57628;BME280;43451;49.060;10.616;2023-04-07T13:08:35;96588.13;;;10.89;69.79
57628;BME280;43451;49.060;10.616;2023-04-07T13:11:01;96583.19;;;10.59;77.26
57628;BME280;43451;49.060;10.616;2023-04-07T13:13:26;96593.94;;;10.84;71.59
57628;BME280;43451;49.060;10.616;2023-04-07T13:15:52;96590.41;;;10.90;67.77